createdAt,value
2023-05-22T00:01:54.909Z,99946.16
2023-05-22T00:04:58.026Z,99937.19
2023-05-22T00:07:59.978Z,99942.31
2023-05-22T00:11:01.724Z,99936.91
2023-05-22T00:14:03.458Z,99939.69
2023-05-22T00:17:05.383Z,99946.16
2023-05-22T00:20:09.522Z,99955.25
2023-05-22T00:23:12.619Z,99938.63
2023-05-22T00:26:16.555Z,99939.59
2023-05-22T00:29:18.347Z,99939.72
2023-05-22T00:32:20.070Z,99937.44
2023-05-22T00:35:23.515Z,99943.16
2023-05-22T00:38:29.779Z,99940.75
2023-05-22T00:41:31.543Z,99940.19
2023-05-22T00:44:33.255Z,99938.66
2023-05-22T00:47:34.929Z,99939.63
2023-05-22T00:50:38.513Z,99935.50
2023-05-22T00:53:40.630Z,99922.59
2023-05-22T00:56:43.004Z,99935.97
2023-05-22T00:59:45.056Z,99926.47
2023-05-22T01:02:46.912Z,99932.94
2023-05-22T01:05:50.128Z,99934.94
2023-05-22T01:08:51.829Z,99923.50
2023-05-22T01:12:01.227Z,99929.06
2023-05-22T01:18:34.997Z,99922.53
2023-05-22T01:21:45.693Z,99921.66
2023-05-22T01:25:19.462Z,99921.91
2023-05-22T01:28:41.821Z,99939.72
2023-05-22T01:31:47.397Z,99943.53
2023-05-22T01:34:54.128Z,99945.53
2023-05-22T01:37:57.725Z,99951.97
2023-05-22T01:40:59.874Z,99953.75
2023-05-22T01:44:02.448Z,99953.97
2023-05-22T01:47:06.118Z,99940.16
2023-05-22T01:50:08.575Z,99953.41
2023-05-22T01:53:15.186Z,99949.03
2023-05-22T01:56:22.956Z,99942.28
2023-05-22T01:59:31.052Z,99950.31
2023-05-22T02:02:36.144Z,99947.75
2023-05-22T02:05:39.705Z,99938.84
2023-05-22T02:08:42.863Z,99937.16
2023-05-22T02:11:45.226Z,99935.63
2023-05-22T02:14:47.560Z,99912.75
2023-05-22T02:17:50.631Z,99927.00
2023-05-22T02:20:52.288Z,99926.38
2023-05-22T02:23:53.935Z,99926.47
2023-05-22T02:26:55.963Z,99932.59
2023-05-22T02:29:57.624Z,99922.84
2023-05-22T02:33:00.703Z,99925.66
2023-05-22T02:36:02.964Z,99920.47
2023-05-22T02:39:04.858Z,99918.13
2023-05-22T02:42:06.825Z,99905.81
2023-05-22T02:45:09.761Z,99904.91
2023-05-22T02:48:12.857Z,99906.72
2023-05-22T02:51:14.539Z,99917.56
2023-05-22T02:54:16.519Z,99917.47
2023-05-22T02:57:18.219Z,99917.63
2023-05-22T03:00:20.615Z,99916.00
2023-05-22T03:03:24.118Z,99916.06
2023-05-22T03:06:25.851Z,99916.97
2023-05-22T03:09:27.811Z,99918.59
2023-05-22T03:12:29.968Z,99906.78
2023-05-22T03:15:31.940Z,99905.91
2023-05-22T03:18:35.285Z,99913.94
2023-05-22T03:21:37.488Z,99912.16
2023-05-22T03:24:39.157Z,99913.19
2023-05-22T03:27:40.847Z,99910.66
2023-05-22T03:30:42.639Z,99903.56
2023-05-22T03:33:45.804Z,99906.72
2023-05-22T03:36:47.504Z,99911.41
2023-05-22T03:39:51.939Z,99906.34
2023-05-22T03:42:53.854Z,99908.97
2023-05-22T03:45:55.593Z,99912.47
2023-05-22T03:48:58.741Z,99905.03
2023-05-22T03:52:00.418Z,99898.72
2023-05-22T03:55:02.343Z,99897.63
2023-05-22T03:58:03.995Z,99900.22
2023-05-22T04:01:05.741Z,99899.06
2023-05-22T04:04:08.771Z,99896.25
2023-05-22T04:07:10.436Z,99895.19
2023-05-22T04:10:12.333Z,99905.38
2023-05-22T04:13:15.733Z,99900.66
2023-05-22T04:16:17.221Z,99919.66
2023-05-22T04:19:20.692Z,99923.72
2023-05-22T04:22:22.549Z,99947.59
2023-05-22T04:25:24.247Z,99963.44
2023-05-22T04:28:25.928Z,99957.94
2023-05-22T04:31:27.671Z,99934.13
2023-05-22T04:34:30.731Z,99940.53
2023-05-22T04:37:32.417Z,99956.47
2023-05-22T04:40:34.091Z,99959.13
2023-05-22T04:43:35.760Z,99961.81
2023-05-22T04:46:37.744Z,99937.84
2023-05-22T04:49:40.894Z,99948.63
2023-05-22T04:52:42.600Z,99948.69
2023-05-22T04:55:44.369Z,99948.00
2023-05-22T04:58:47.476Z,99941.75
2023-05-22T05:01:49.646Z,99941.66
2023-05-22T05:04:52.800Z,99950.50
2023-05-22T05:07:54.506Z,99957.75
2023-05-22T05:10:56.493Z,99963.28
2023-05-22T05:13:58.221Z,99953.63
2023-05-22T05:17:00.218Z,99962.66
2023-05-22T05:20:04.456Z,99966.97
2023-05-22T05:23:06.117Z,99964.41
2023-05-22T05:26:07.811Z,99957.72
2023-05-22T05:29:09.410Z,99953.94
2023-05-22T05:32:11.142Z,99970.25
2023-05-22T05:35:14.639Z,99971.63
2023-05-22T05:38:16.325Z,99972.09
2023-05-22T05:41:18.249Z,99979.84
2023-05-22T05:44:20.173Z,99977.50
2023-05-22T05:47:22.030Z,99971.75
2023-05-22T05:50:25.006Z,99980.34
2023-05-22T05:53:26.675Z,99980.78
2023-05-22T05:56:28.670Z,99978.47
2023-05-22T05:59:30.612Z,99982.28
2023-05-22T06:02:32.347Z,99968.19
2023-05-22T06:05:35.521Z,99972.09
2023-05-22T06:08:37.683Z,99980.50
2023-05-22T06:11:39.340Z,99974.69
2023-05-22T06:14:41.044Z,99961.97
2023-05-22T06:17:42.749Z,99969.19
2023-05-22T06:20:45.767Z,99966.94
2023-05-22T06:23:47.531Z,99976.56
2023-05-22T06:26:49.201Z,99979.78
2023-05-22T06:29:51.073Z,99983.84
2023-05-22T06:32:52.864Z,99979.78
2023-05-22T06:35:56.052Z,99968.59
2023-05-22T06:38:58.148Z,99942.75
2023-05-22T06:41:59.807Z,99964.09
2023-05-22T06:45:01.524Z,99973.09
2023-05-22T06:48:03.598Z,99964.97
2023-05-22T06:51:06.779Z,99963.84
2023-05-22T06:54:08.622Z,99961.72
2023-05-22T06:57:10.371Z,99966.84
2023-05-22T07:00:13.182Z,99964.66
2023-05-22T07:03:14.913Z,99950.94
2023-05-22T07:06:18.447Z,99966.28
2023-05-22T07:09:20.443Z,99960.25
2023-05-22T07:12:22.436Z,99965.69
2023-05-22T07:15:24.251Z,99975.34
2023-05-22T07:18:25.991Z,99975.47
2023-05-22T07:21:29.157Z,99969.59
2023-05-22T07:24:31.241Z,99960.25
2023-05-22T07:27:33.071Z,99967.63
2023-05-22T07:30:36.098Z,99968.16
2023-05-22T07:33:37.785Z,99980.91
2023-05-22T07:36:40.958Z,99974.38
2023-05-22T07:39:42.442Z,99981.41
2023-05-22T07:42:44.053Z,99977.53
2023-05-22T07:45:46.012Z,99963.00
2023-05-22T07:48:48.257Z,99976.16
2023-05-22T07:51:51.332Z,99980.66
2023-05-22T07:54:58.974Z,99978.88
2023-05-22T07:58:00.784Z,99978.44
2023-05-22T08:01:02.584Z,99985.22
2023-05-22T08:04:04.977Z,99992.38
2023-05-22T08:07:08.682Z,99987.78
2023-05-22T08:10:15.760Z,99989.06
2023-05-22T08:13:18.330Z,99987.44
2023-05-22T08:16:20.327Z,99986.38
2023-05-22T08:19:22.288Z,99990.69
2023-05-22T08:22:25.531Z,99983.22
2023-05-22T08:25:27.313Z,99977.78
2023-05-22T08:28:29.220Z,99978.78
2023-05-22T08:31:31.065Z,99979.22
2023-05-22T08:34:32.989Z,99971.88
2023-05-22T08:37:36.086Z,99977.63
2023-05-22T08:40:38.507Z,99977.09
2023-05-22T08:43:41.606Z,99978.28
2023-05-22T08:46:44.919Z,99980.09
2023-05-22T08:49:50.615Z,99982.41
2023-05-22T08:52:55.996Z,99997.59
2023-05-22T08:55:57.950Z,99989.59
2023-05-22T08:59:00.366Z,99993.72
2023-05-22T09:02:06.557Z,99989.59
2023-05-22T09:05:09.580Z,99986.72
2023-05-22T09:08:20.530Z,99987.31
2023-05-22T09:11:23.333Z,99994.81
2023-05-22T09:14:25.061Z,99998.91
2023-05-22T09:17:26.937Z,100002.22
2023-05-22T09:20:28.663Z,99979.50
2023-05-22T09:23:32.003Z,99990.94
2023-05-22T09:26:34.592Z,99994.50
2023-05-22T09:29:47.831Z,99982.63
2023-05-22T09:32:49.623Z,99974.13
2023-05-22T09:35:52.819Z,99975.66
2023-05-22T09:38:55.834Z,99971.25
2023-05-22T09:42:01.607Z,99969.84
2023-05-22T09:45:04.120Z,99964.91
2023-05-22T09:48:07.112Z,99972.28
2023-05-22T09:51:10.957Z,99968.59
2023-05-22T09:54:15.578Z,99963.97
2023-05-22T09:57:19.568Z,99960.56
2023-05-22T10:00:22.994Z,99958.06
2023-05-22T10:03:27.721Z,99952.91
2023-05-22T10:06:31.523Z,99954.59
2023-05-22T10:09:38.279Z,99948.16
2023-05-22T10:12:43.287Z,99952.16
2023-05-22T10:15:47.426Z,99938.41
2023-05-22T10:18:49.283Z,99942.22
2023-05-22T10:21:51.520Z,99937.19
2023-05-22T10:24:55.323Z,99942.34
2023-05-22T10:27:58.135Z,99936.59
2023-05-22T10:31:04.760Z,99929.00
2023-05-22T10:34:11.230Z,99929.72
2023-05-22T10:37:28.607Z,99921.16
2023-05-22T10:40:43.003Z,99920.75
2023-05-22T10:43:49.064Z,99912.88
2023-05-22T10:46:50.802Z,99924.66
2023-05-22T10:50:03.606Z,99917.56
2023-05-22T10:53:23.503Z,99901.97
2023-05-22T10:56:34.802Z,99907.75
2023-05-22T10:59:36.783Z,99891.19
2023-05-22T11:02:40.553Z,99903.63
2023-05-22T11:05:42.278Z,99898.03
2023-05-22T11:08:43.935Z,99895.00
2023-05-22T11:11:47.566Z,99888.69
2023-05-22T11:14:51.320Z,99882.22
2023-05-22T11:17:55.161Z,99877.75
2023-05-22T11:20:59.338Z,99882.34
2023-05-22T11:24:01.187Z,99879.44
2023-05-22T11:27:06.545Z,99872.34
2023-05-22T11:30:10.102Z,99862.06
2023-05-22T11:33:12.134Z,99870.75
2023-05-22T11:36:15.377Z,99873.31
2023-05-22T11:39:17.036Z,99865.78
2023-05-22T11:42:20.322Z,99862.06
2023-05-22T11:45:22.360Z,99857.41
2023-05-22T11:48:24.189Z,99858.97
2023-05-22T11:51:27.238Z,99863.09
2023-05-22T11:54:32.045Z,99849.53
2023-05-22T11:57:36.971Z,99852.34
2023-05-22T12:00:38.825Z,99840.44
2023-05-22T12:03:40.822Z,99856.63
2023-05-22T12:06:42.675Z,99849.00
2023-05-22T12:09:44.552Z,99844.09
2023-05-22T12:12:47.627Z,99836.25
2023-05-22T12:15:49.651Z,99838.88
2023-05-22T12:18:52.843Z,99841.81
2023-05-22T12:21:54.657Z,99838.16
2023-05-22T12:24:56.336Z,99835.81
2023-05-22T12:27:59.917Z,99823.81
2023-05-22T12:31:01.827Z,99824.16
2023-05-22T12:34:06.758Z,99821.66
2023-05-22T12:37:18.264Z,99820.94
2023-05-22T12:40:19.948Z,99809.41
2023-05-22T12:43:24.525Z,99814.72
2023-05-22T12:46:26.320Z,99810.09
2023-05-22T12:49:28.496Z,99805.53
2023-05-22T12:52:30.402Z,99790.13
2023-05-22T12:55:32.991Z,99797.53
2023-05-22T12:58:36.051Z,99791.47
2023-05-22T13:01:37.592Z,99779.19
2023-05-22T13:04:39.388Z,99779.56
2023-05-22T13:07:41.548Z,99779.34
2023-05-22T13:10:43.687Z,99769.28
2023-05-22T13:13:46.811Z,99775.03
2023-05-22T13:16:48.770Z,99765.56
2023-05-22T13:19:50.524Z,99757.31
2023-05-22T13:22:52.459Z,99762.03
2023-05-22T13:25:54.279Z,99755.09
2023-05-22T13:28:57.334Z,99764.13
2023-05-22T13:31:59.301Z,99760.84
2023-05-22T13:35:01.063Z,99758.91
2023-05-22T13:38:03.115Z,99763.56
2023-05-22T13:41:05.314Z,99758.31
2023-05-22T13:44:08.417Z,99751.97
2023-05-22T13:47:10.264Z,99751.19
2023-05-22T13:50:12.082Z,99745.78
2023-05-22T13:53:14.150Z,99744.16
2023-05-22T13:56:15.957Z,99746.91
2023-05-22T13:59:19.280Z,99735.28
2023-05-22T14:02:21.526Z,99742.97
2023-05-22T14:05:24.170Z,99696.66
2023-05-22T14:08:26.751Z,99738.91
2023-05-22T14:11:28.513Z,99728.19
2023-05-22T14:14:31.571Z,99726.47
2023-05-22T14:17:33.306Z,99729.72
2023-05-22T14:20:35.350Z,99733.78
2023-05-22T14:23:37.262Z,99726.88
2023-05-22T14:26:39.193Z,99736.88
2023-05-22T14:29:42.671Z,99733.44
2023-05-22T14:32:44.474Z,99735.28
2023-05-22T14:35:46.314Z,99723.44
2023-05-22T14:38:47.985Z,99724.88
2023-05-22T14:41:49.735Z,99714.25
2023-05-22T14:44:52.740Z,99723.19
2023-05-22T14:47:55.116Z,99714.56
2023-05-22T14:50:56.923Z,99724.38
2023-05-22T14:53:58.629Z,99719.31
2023-05-22T14:57:00.351Z,99707.84
2023-05-22T15:00:04.185Z,99714.66
2023-05-22T15:03:06.159Z,99713.75
2023-05-22T15:06:08.111Z,99709.28
2023-05-22T15:09:09.752Z,99711.97
2023-05-22T15:12:11.412Z,99706.22
2023-05-22T15:15:14.715Z,99699.34
2023-05-22T15:18:16.541Z,99700.13
2023-05-22T15:21:18.737Z,99704.34
2023-05-22T15:24:20.664Z,99692.91
2023-05-22T15:27:22.453Z,99695.25
2023-05-22T15:30:25.623Z,99689.84
2023-05-22T15:33:27.560Z,99689.34
2023-05-22T15:36:29.526Z,99691.44
2023-05-22T15:39:31.345Z,99686.72
2023-05-22T15:42:33.264Z,99687.16
2023-05-22T15:45:37.036Z,99679.63
2023-05-22T15:48:38.757Z,99684.50
2023-05-22T15:51:40.585Z,99678.88
2023-05-22T15:54:42.301Z,99677.34
2023-05-22T15:57:44.015Z,99667.09
2023-05-22T16:00:47.032Z,99666.72
2023-05-22T16:03:49.160Z,99682.56
2023-05-22T16:06:51.026Z,99682.75
2023-05-22T16:09:52.760Z,99683.94
2023-05-22T16:12:54.468Z,99666.34
2023-05-22T16:15:57.600Z,99676.94
2023-05-22T16:18:59.762Z,99674.66
2023-05-22T16:22:01.649Z,99667.38
2023-05-22T16:25:03.594Z,99673.31
2023-05-22T16:28:05.285Z,99679.72
2023-05-22T16:31:08.402Z,99677.47
2023-05-22T16:34:10.110Z,99679.84
2023-05-22T16:37:11.803Z,99682.44
2023-05-22T16:40:13.602Z,99685.38
2023-05-22T16:43:15.438Z,99682.00
2023-05-22T16:46:18.718Z,99682.09
2023-05-22T16:49:20.378Z,99683.09
2023-05-22T16:52:22.219Z,99679.03
2023-05-22T16:55:24.046Z,99682.03
2023-05-22T16:58:25.906Z,99697.19
2023-05-22T17:01:29.308Z,99689.38
2023-05-22T17:04:31.091Z,99685.44
2023-05-22T17:07:32.816Z,99683.72
2023-05-22T17:10:34.504Z,99693.84
2023-05-22T17:13:36.449Z,99693.16
2023-05-22T17:16:39.585Z,99700.31
2023-05-22T17:19:41.356Z,99700.78
2023-05-22T17:22:43.292Z,99701.69
2023-05-22T17:25:45.630Z,99696.41
2023-05-22T17:28:47.519Z,99712.31
2023-05-22T17:31:50.999Z,99738.34
2023-05-22T17:34:52.646Z,99720.31
2023-05-22T17:37:54.585Z,99730.75
2023-05-22T17:40:56.308Z,99731.47
2023-05-22T17:44:00.435Z,99731.63
2023-05-22T17:47:04.550Z,99727.13
2023-05-22T17:50:07.444Z,99729.50
2023-05-22T17:53:09.148Z,99726.53
2023-05-22T17:56:11.154Z,99724.72
2023-05-22T17:59:13.053Z,99713.97
2023-05-22T18:02:16.224Z,99705.34
2023-05-22T18:05:20.915Z,99708.03
2023-05-22T18:08:22.822Z,99699.47
2023-05-22T18:11:24.672Z,99702.25
2023-05-22T18:14:26.341Z,99710.97
2023-05-22T18:17:29.913Z,99709.22
2023-05-22T18:20:31.703Z,99716.25
2023-05-22T18:23:33.411Z,99721.28
2023-05-22T18:26:35.194Z,99736.59
2023-05-22T18:29:36.963Z,99731.25
2023-05-22T18:32:40.349Z,99731.78
2023-05-22T18:35:42.189Z,99725.31
2023-05-22T18:38:43.882Z,99730.09
2023-05-22T18:41:45.697Z,99730.25
2023-05-22T18:44:48.982Z,99737.63
2023-05-22T18:47:52.402Z,99736.94
2023-05-22T18:50:53.898Z,99758.06
2023-05-22T18:53:55.866Z,99778.88
2023-05-22T18:56:58.031Z,99777.94
2023-05-22T18:59:59.763Z,99770.81
2023-05-22T19:03:03.015Z,99776.25
2023-05-22T19:06:05.175Z,99782.16
2023-05-22T19:09:06.959Z,99780.44
2023-05-22T19:12:09.009Z,99790.34
2023-05-22T19:15:11.498Z,99787.91
2023-05-22T19:18:14.509Z,99792.72
2023-05-22T19:21:16.286Z,99792.28
2023-05-22T19:24:18.084Z,99796.13
2023-05-22T19:27:20.101Z,99787.59
2023-05-22T19:30:21.819Z,99794.28
2023-05-22T19:33:24.964Z,99795.34
2023-05-22T19:36:26.727Z,99798.25
2023-05-22T19:39:28.695Z,99797.81
2023-05-22T19:42:30.515Z,99791.19
2023-05-22T19:45:32.377Z,99788.94
2023-05-22T19:48:35.928Z,99786.63
2023-05-22T19:51:37.617Z,99787.97
2023-05-22T19:54:39.442Z,99784.13
2023-05-22T19:57:41.147Z,99793.25
2023-05-22T20:00:43.592Z,99788.38
2023-05-22T20:03:46.865Z,99783.00
2023-05-22T20:06:48.461Z,99783.94
2023-05-22T20:09:50.284Z,99789.44
2023-05-22T20:12:52.176Z,99779.84
2023-05-22T20:15:53.888Z,99778.66
2023-05-22T20:18:57.168Z,99780.03
2023-05-22T20:21:58.700Z,99781.13
2023-05-22T20:25:00.206Z,99772.56
2023-05-22T20:28:03.436Z,99776.16
2023-05-22T20:31:04.892Z,99774.38
2023-05-22T20:34:08.111Z,99771.16
2023-05-22T20:37:09.852Z,99770.41
2023-05-22T20:40:12.948Z,99767.09
2023-05-22T20:43:14.894Z,99778.31
2023-05-22T20:46:16.745Z,99778.59
2023-05-22T20:49:19.869Z,99769.09
2023-05-22T20:52:21.561Z,99770.03
2023-05-22T20:55:23.334Z,99769.44
2023-05-22T20:58:25.039Z,99769.69
2023-05-22T21:01:26.751Z,99772.56
2023-05-22T21:04:30.004Z,99768.59
2023-05-22T23:13:34.069Z,99759.56
2023-05-22T23:16:35.930Z,99764.94
2023-05-22T23:19:38.242Z,99763.41
2023-05-22T23:22:39.958Z,99759.28
2023-05-22T23:25:41.890Z,99756.41
2023-05-22T23:28:45.149Z,99743.28
2023-05-22T23:31:46.959Z,99744.09
2023-05-22T23:34:48.723Z,99742.72
2023-05-22T23:37:50.480Z,99743.75
2023-05-22T23:40:52.181Z,99736.66
2023-05-22T23:43:55.221Z,99745.59
2023-05-22T23:46:57.353Z,99741.13
2023-05-22T23:49:59.073Z,99745.63
2023-05-22T23:53:00.804Z,99746.59
2023-05-22T23:56:02.550Z,99757.25
2023-05-22T23:59:05.951Z,99754.63
